sensor_id;sensor_type;location;lat;lon;timestamp;temperature;humidity
25918;DHT22;13899;51.174;4.456;2022-12-18T00:00:45;-2.70;99.90
25918;DHT22;13899;51.174;4.456;2022-12-18T00:03:13;-2.70;99.90
25918;DHT22;13899;51.174;4.456;2022-12-18T00:05:45;-2.70;99.90
25918;DHT22;13899;51.174;4.456;2022-12-18T00:08:11;-2.70;99.90
25918;DHT22;13899;51.174;4.456;2022-12-18T00:10:36;-2.90;99.90
25918;DHT22;13899;51.174;4.456;2022-12-18T00:13:02;-2.80;99.90
25918;DHT22;13899;51.174;4.456;2022-12-18T00:15:27;-2.80;99.90
25918;DHT22;13899;51.174;4.456;2022-12-18T00:17:53;-2.80;99.90
25918;DHT22;13899;51.174;4.456;2022-12-18T00:20:19;-2.70;99.90
25918;DHT22;13899;51.174;4.456;2022-12-18T00:22:51;-2.80;99.90
25918;DHT22;13899;51.174;4.456;2022-12-18T00:25:17;-2.80;99.90
25918;DHT22;13899;51.174;4.456;2022-12-18T00:27:42;-2.80;99.90
25918;DHT22;13899;51.174;4.456;2022-12-18T00:30:08;-2.80;99.90
25918;DHT22;13899;51.174;4.456;2022-12-18T00:32:34;-2.80;99.90
25918;DHT22;13899;51.174;4.456;2022-12-18T00:35:00;-2.80;99.90
25918;DHT22;13899;51.174;4.456;2022-12-18T00:37:25;-2.80;99.90
25918;DHT22;13899;51.174;4.456;2022-12-18T00:39:51;-2.80;99.90
25918;DHT22;13899;51.174;4.456;2022-12-18T00:42:16;-2.80;99.90
25918;DHT22;13899;51.174;4.456;2022-12-18T00:45:00;-2.90;99.90
25918;DHT22;13899;51.174;4.456;2022-12-18T00:47:26;-3.00;99.90
25918;DHT22;13899;51.174;4.456;2022-12-18T00:49:51;-3.00;99.90
25918;DHT22;13899;51.174;4.456;2022-12-18T00:52:17;-3.00;99.90
25918;DHT22;13899;51.174;4.456;2022-12-18T00:54:42;-3.00;99.90
25918;DHT22;13899;51.174;4.456;2022-12-18T00:57:08;-2.90;99.90
25918;DHT22;13899;51.174;4.456;2022-12-18T00:59:33;-2.90;99.90
25918;DHT22;13899;51.174;4.456;2022-12-18T01:01:59;-2.90;99.90
25918;DHT22;13899;51.174;4.456;2022-12-18T01:04:25;-3.00;99.90
25918;DHT22;13899;51.174;4.456;2022-12-18T01:06:50;-2.90;99.90
25918;DHT22;13899;51.174;4.456;2022-12-18T01:09:16;-3.00;99.90
25918;DHT22;13899;51.174;4.456;2022-12-18T01:11:41;-2.90;99.90
25918;DHT22;13899;51.174;4.456;2022-12-18T01:14:07;-3.00;99.90
25918;DHT22;13899;51.174;4.456;2022-12-18T01:16:32;-3.00;99.90
25918;DHT22;13899;51.174;4.456;2022-12-18T01:18:58;-3.00;99.90
25918;DHT22;13899;51.174;4.456;2022-12-18T01:21:24;-3.10;99.90
25918;DHT22;13899;51.174;4.456;2022-12-18T01:23:54;-3.10;99.90
25918;DHT22;13899;51.174;4.456;2022-12-18T01:26:20;-3.20;99.90
25918;DHT22;13899;51.174;4.456;2022-12-18T01:28:46;-3.30;99.90
25918;DHT22;13899;51.174;4.456;2022-12-18T01:31:22;-3.30;99.90
25918;DHT22;13899;51.174;4.456;2022-12-18T01:33:47;-3.40;99.90
25918;DHT22;13899;51.174;4.456;2022-12-18T01:38:44;-3.30;99.90
25918;DHT22;13899;51.174;4.456;2022-12-18T01:41:09;-3.40;99.90
25918;DHT22;13899;51.174;4.456;2022-12-18T01:43:54;-3.40;99.90
25918;DHT22;13899;51.174;4.456;2022-12-18T01:46:22;-3.40;99.90
25918;DHT22;13899;51.174;4.456;2022-12-18T01:48:49;-3.50;99.90
25918;DHT22;13899;51.174;4.456;2022-12-18T01:51:16;-3.50;99.90
25918;DHT22;13899;51.174;4.456;2022-12-18T01:53:42;-3.50;99.90
25918;DHT22;13899;51.174;4.456;2022-12-18T01:56:13;-3.60;99.90
25918;DHT22;13899;51.174;4.456;2022-12-18T01:58:48;-3.60;99.90
25918;DHT22;13899;51.174;4.456;2022-12-18T02:01:15;-3.60;99.90
25918;DHT22;13899;51.174;4.456;2022-12-18T02:03:42;-3.50;99.90
25918;DHT22;13899;51.174;4.456;2022-12-18T02:17:23;-3.50;99.90
25918;DHT22;13899;51.174;4.456;2022-12-18T02:20:31;-3.70;99.90
25918;DHT22;13899;51.174;4.456;2022-12-18T02:28:56;-3.70;99.90
25918;DHT22;13899;51.174;4.456;2022-12-18T02:31:27;-3.70;99.90
25918;DHT22;13899;51.174;4.456;2022-12-18T02:33:56;-3.60;99.90
25918;DHT22;13899;51.174;4.456;2022-12-18T02:36:24;-3.60;99.90
25918;DHT22;13899;51.174;4.456;2022-12-18T02:38:52;-3.70;99.90
25918;DHT22;13899;51.174;4.456;2022-12-18T02:41:19;-3.70;99.90
25918;DHT22;13899;51.174;4.456;2022-12-18T02:43:49;-3.80;99.90
25918;DHT22;13899;51.174;4.456;2022-12-18T02:49:06;-3.70;99.90
25918;DHT22;13899;51.174;4.456;2022-12-18T02:54:41;-3.90;99.90
25918;DHT22;13899;51.174;4.456;2022-12-18T02:57:31;-3.90;99.90
25918;DHT22;13899;51.174;4.456;2022-12-18T03:00:10;-4.00;99.90
25918;DHT22;13899;51.174;4.456;2022-12-18T03:02:57;-3.80;99.90
25918;DHT22;13899;51.174;4.456;2022-12-18T03:08:08;-3.60;99.90
25918;DHT22;13899;51.174;4.456;2022-12-18T03:10:41;-3.60;99.90
25918;DHT22;13899;51.174;4.456;2022-12-18T03:13:11;-3.50;99.90
25918;DHT22;13899;51.174;4.456;2022-12-18T03:15:50;-3.50;99.90
25918;DHT22;13899;51.174;4.456;2022-12-18T03:18:23;-3.50;99.90
25918;DHT22;13899;51.174;4.456;2022-12-18T03:20:52;-3.70;99.90
25918;DHT22;13899;51.174;4.456;2022-12-18T03:23:22;-3.80;99.90
25918;DHT22;13899;51.174;4.456;2022-12-18T03:25:52;-3.80;99.90
25918;DHT22;13899;51.174;4.456;2022-12-18T03:28:21;-3.90;99.90
25918;DHT22;13899;51.174;4.456;2022-12-18T03:30:50;-3.90;99.90
25918;DHT22;13899;51.174;4.456;2022-12-18T03:34:09;-3.90;99.90
25918;DHT22;13899;51.174;4.456;2022-12-18T03:36:38;-3.90;99.90
25918;DHT22;13899;51.174;4.456;2022-12-18T03:39:04;-3.90;99.90
25918;DHT22;13899;51.174;4.456;2022-12-18T03:52:41;-3.80;99.90
25918;DHT22;13899;51.174;4.456;2022-12-18T03:55:09;-3.90;99.90
25918;DHT22;13899;51.174;4.456;2022-12-18T03:57:37;-3.80;99.90
25918;DHT22;13899;51.174;4.456;2022-12-18T04:00:14;-3.80;99.90
25918;DHT22;13899;51.174;4.456;2022-12-18T04:02:52;-3.70;99.90
25918;DHT22;13899;51.174;4.456;2022-12-18T04:05:19;-3.80;99.90
25918;DHT22;13899;51.174;4.456;2022-12-18T04:07:47;-4.00;99.90
25918;DHT22;13899;51.174;4.456;2022-12-18T04:10:14;-3.90;99.90
25918;DHT22;13899;51.174;4.456;2022-12-18T04:12:41;-3.90;99.90
25918;DHT22;13899;51.174;4.456;2022-12-18T04:15:08;-3.80;99.90
25918;DHT22;13899;51.174;4.456;2022-12-18T04:17:34;-3.90;99.90
25918;DHT22;13899;51.174;4.456;2022-12-18T04:20:00;-4.00;99.90
25918;DHT22;13899;51.174;4.456;2022-12-18T04:22:26;-4.00;99.90
25918;DHT22;13899;51.174;4.456;2022-12-18T04:24:52;-4.10;99.90
25918;DHT22;13899;51.174;4.456;2022-12-18T04:27:17;-4.10;99.90
25918;DHT22;13899;51.174;4.456;2022-12-18T04:29:43;-4.20;99.90
25918;DHT22;13899;51.174;4.456;2022-12-18T04:32:08;-4.20;99.90
25918;DHT22;13899;51.174;4.456;2022-12-18T04:34:34;-4.20;99.90
25918;DHT22;13899;51.174;4.456;2022-12-18T04:36:59;-4.20;99.90
25918;DHT22;13899;51.174;4.456;2022-12-18T04:39:25;-4.20;99.90
25918;DHT22;13899;51.174;4.456;2022-12-18T04:41:51;-4.20;99.90
25918;DHT22;13899;51.174;4.456;2022-12-18T04:44:18;-4.20;99.90
25918;DHT22;13899;51.174;4.456;2022-12-18T04:46:43;-4.30;99.90
25918;DHT22;13899;51.174;4.456;2022-12-18T04:49:09;-4.30;99.90
25918;DHT22;13899;51.174;4.456;2022-12-18T04:51:36;-4.20;99.90
25918;DHT22;13899;51.174;4.456;2022-12-18T04:54:02;-4.20;99.90
25918;DHT22;13899;51.174;4.456;2022-12-18T04:56:28;-4.20;99.90
25918;DHT22;13899;51.174;4.456;2022-12-18T04:58:55;-4.10;99.90
25918;DHT22;13899;51.174;4.456;2022-12-18T05:01:21;-4.10;99.90
25918;DHT22;13899;51.174;4.456;2022-12-18T05:03:46;-4.10;99.90
25918;DHT22;13899;51.174;4.456;2022-12-18T05:06:12;-4.00;99.90
25918;DHT22;13899;51.174;4.456;2022-12-18T05:08:37;-3.90;99.90
25918;DHT22;13899;51.174;4.456;2022-12-18T05:11:06;-3.90;99.90
25918;DHT22;13899;51.174;4.456;2022-12-18T05:13:32;-3.90;99.90
25918;DHT22;13899;51.174;4.456;2022-12-18T05:15:58;-3.90;99.90
25918;DHT22;13899;51.174;4.456;2022-12-18T05:18:24;-3.90;99.90
25918;DHT22;13899;51.174;4.456;2022-12-18T05:20:51;-4.10;99.90
25918;DHT22;13899;51.174;4.456;2022-12-18T05:23:16;-4.10;99.90
25918;DHT22;13899;51.174;4.456;2022-12-18T05:25:42;-4.20;99.90
25918;DHT22;13899;51.174;4.456;2022-12-18T05:28:08;-4.10;99.90
25918;DHT22;13899;51.174;4.456;2022-12-18T05:30:33;-4.00;99.90
25918;DHT22;13899;51.174;4.456;2022-12-18T05:32:59;-4.20;99.90
25918;DHT22;13899;51.174;4.456;2022-12-18T05:35:24;-4.20;99.90
25918;DHT22;13899;51.174;4.456;2022-12-18T05:37:50;-4.10;99.90
25918;DHT22;13899;51.174;4.456;2022-12-18T05:40:16;-4.10;99.90
25918;DHT22;13899;51.174;4.456;2022-12-18T05:42:41;-4.10;99.90
25918;DHT22;13899;51.174;4.456;2022-12-18T05:45:07;-4.20;99.90
25918;DHT22;13899;51.174;4.456;2022-12-18T05:47:33;-4.30;99.90
25918;DHT22;13899;51.174;4.456;2022-12-18T05:49:58;-4.30;99.90
25918;DHT22;13899;51.174;4.456;2022-12-18T05:52:24;-4.30;99.90
25918;DHT22;13899;51.174;4.456;2022-12-18T05:54:49;-4.30;99.90
25918;DHT22;13899;51.174;4.456;2022-12-18T05:57:15;-4.30;99.90
25918;DHT22;13899;51.174;4.456;2022-12-18T05:59:41;-4.30;99.90
25918;DHT22;13899;51.174;4.456;2022-12-18T06:02:06;-4.30;99.90
25918;DHT22;13899;51.174;4.456;2022-12-18T06:04:32;-4.30;99.90
25918;DHT22;13899;51.174;4.456;2022-12-18T06:06:58;-4.30;99.90
25918;DHT22;13899;51.174;4.456;2022-12-18T06:09:24;-4.20;99.90
25918;DHT22;13899;51.174;4.456;2022-12-18T06:11:51;-4.40;99.90
25918;DHT22;13899;51.174;4.456;2022-12-18T06:14:17;-4.30;99.90
25918;DHT22;13899;51.174;4.456;2022-12-18T06:16:42;-4.20;99.90
25918;DHT22;13899;51.174;4.456;2022-12-18T06:19:15;-4.40;99.90
25918;DHT22;13899;51.174;4.456;2022-12-18T06:21:41;-4.50;99.90
25918;DHT22;13899;51.174;4.456;2022-12-18T06:24:07;-4.40;99.90
25918;DHT22;13899;51.174;4.456;2022-12-18T06:26:33;-4.40;99.90
25918;DHT22;13899;51.174;4.456;2022-12-18T06:28:58;-4.30;99.90
25918;DHT22;13899;51.174;4.456;2022-12-18T06:31:24;-4.20;99.90
25918;DHT22;13899;51.174;4.456;2022-12-18T06:33:50;-4.20;99.90
25918;DHT22;13899;51.174;4.456;2022-12-18T06:36:16;-4.20;99.90
25918;DHT22;13899;51.174;4.456;2022-12-18T06:38:43;-4.20;99.90
25918;DHT22;13899;51.174;4.456;2022-12-18T06:41:18;-4.30;99.90
25918;DHT22;13899;51.174;4.456;2022-12-18T06:43:44;-4.40;99.90
25918;DHT22;13899;51.174;4.456;2022-12-18T06:46:11;-4.30;99.90
25918;DHT22;13899;51.174;4.456;2022-12-18T06:48:36;-4.20;99.90
25918;DHT22;13899;51.174;4.456;2022-12-18T06:51:02;-4.10;99.90
25918;DHT22;13899;51.174;4.456;2022-12-18T06:53:28;-4.20;99.90
25918;DHT22;13899;51.174;4.456;2022-12-18T06:56:05;-4.10;99.90
25918;DHT22;13899;51.174;4.456;2022-12-18T06:58:32;-4.00;99.90
25918;DHT22;13899;51.174;4.456;2022-12-18T07:01:02;-4.10;99.90
25918;DHT22;13899;51.174;4.456;2022-12-18T07:03:28;-4.10;99.90
25918;DHT22;13899;51.174;4.456;2022-12-18T07:05:54;-4.10;99.90
25918;DHT22;13899;51.174;4.456;2022-12-18T07:08:19;-4.10;99.90
25918;DHT22;13899;51.174;4.456;2022-12-18T07:10:45;-4.20;99.90
25918;DHT22;13899;51.174;4.456;2022-12-18T07:13:11;-4.30;99.90
25918;DHT22;13899;51.174;4.456;2022-12-18T07:15:36;-4.30;99.90
25918;DHT22;13899;51.174;4.456;2022-12-18T07:18:02;-4.40;99.90
25918;DHT22;13899;51.174;4.456;2022-12-18T07:20:28;-4.40;99.90
25918;DHT22;13899;51.174;4.456;2022-12-18T07:22:53;-4.50;99.90
25918;DHT22;13899;51.174;4.456;2022-12-18T07:25:19;-4.50;99.90
25918;DHT22;13899;51.174;4.456;2022-12-18T07:27:44;-4.40;99.90
25918;DHT22;13899;51.174;4.456;2022-12-18T07:30:10;-4.30;99.90
25918;DHT22;13899;51.174;4.456;2022-12-18T07:32:36;-4.20;99.90
25918;DHT22;13899;51.174;4.456;2022-12-18T07:35:02;-4.20;99.90
25918;DHT22;13899;51.174;4.456;2022-12-18T07:37:27;-4.30;99.90
25918;DHT22;13899;51.174;4.456;2022-12-18T07:39:53;-4.40;99.90
25918;DHT22;13899;51.174;4.456;2022-12-18T07:42:19;-4.50;99.90
25918;DHT22;13899;51.174;4.456;2022-12-18T07:44:59;-4.50;99.90
25918;DHT22;13899;51.174;4.456;2022-12-18T07:47:28;-4.50;99.90
25918;DHT22;13899;51.174;4.456;2022-12-18T07:49:54;-4.40;99.90
25918;DHT22;13899;51.174;4.456;2022-12-18T07:52:20;-4.40;99.90
25918;DHT22;13899;51.174;4.456;2022-12-18T07:54:46;-4.20;99.90
25918;DHT22;13899;51.174;4.456;2022-12-18T07:57:14;-4.20;99.90
25918;DHT22;13899;51.174;4.456;2022-12-18T07:59:39;-4.20;99.90
25918;DHT22;13899;51.174;4.456;2022-12-18T08:02:05;-4.10;99.90
25918;DHT22;13899;51.174;4.456;2022-12-18T08:04:31;-4.20;99.90
25918;DHT22;13899;51.174;4.456;2022-12-18T08:06:56;-4.10;99.90
25918;DHT22;13899;51.174;4.456;2022-12-18T08:09:22;-4.20;99.90
25918;DHT22;13899;51.174;4.456;2022-12-18T08:11:48;-4.10;99.90
25918;DHT22;13899;51.174;4.456;2022-12-18T08:14:13;-4.00;99.90
25918;DHT22;13899;51.174;4.456;2022-12-18T08:16:40;-4.00;99.90
25918;DHT22;13899;51.174;4.456;2022-12-18T08:19:05;-3.90;99.90
25918;DHT22;13899;51.174;4.456;2022-12-18T08:21:31;-4.00;99.90
25918;DHT22;13899;51.174;4.456;2022-12-18T08:23:58;-4.00;99.90
25918;DHT22;13899;51.174;4.456;2022-12-18T08:26:26;-3.80;99.90
25918;DHT22;13899;51.174;4.456;2022-12-18T08:28:54;-3.60;99.90
25918;DHT22;13899;51.174;4.456;2022-12-18T08:31:20;-3.60;99.90
25918;DHT22;13899;51.174;4.456;2022-12-18T08:33:49;-3.70;99.90
25918;DHT22;13899;51.174;4.456;2022-12-18T08:36:15;-3.50;99.90
25918;DHT22;13899;51.174;4.456;2022-12-18T08:38:41;-3.20;99.90
25918;DHT22;13899;51.174;4.456;2022-12-18T08:41:10;-3.20;99.90
25918;DHT22;13899;51.174;4.456;2022-12-18T08:43:36;-3.20;99.90
25918;DHT22;13899;51.174;4.456;2022-12-18T08:46:22;-3.00;99.90
25918;DHT22;13899;51.174;4.456;2022-12-18T08:48:51;-2.70;99.90
25918;DHT22;13899;51.174;4.456;2022-12-18T08:51:17;-2.50;99.90
25918;DHT22;13899;51.174;4.456;2022-12-18T08:53:43;-2.30;99.90
25918;DHT22;13899;51.174;4.456;2022-12-18T08:56:10;-2.30;99.90
25918;DHT22;13899;51.174;4.456;2022-12-18T08:58:36;-2.20;99.90
25918;DHT22;13899;51.174;4.456;2022-12-18T09:01:08;-2.60;99.90
25918;DHT22;13899;51.174;4.456;2022-12-18T09:03:37;-2.40;99.90
25918;DHT22;13899;51.174;4.456;2022-12-18T09:06:03;-2.40;99.90
25918;DHT22;13899;51.174;4.456;2022-12-18T09:08:29;-2.30;99.90
25918;DHT22;13899;51.174;4.456;2022-12-18T09:10:57;-2.20;99.90
25918;DHT22;13899;51.174;4.456;2022-12-18T09:13:23;-1.90;99.90
25918;DHT22;13899;51.174;4.456;2022-12-18T09:15:52;-1.60;99.90
25918;DHT22;13899;51.174;4.456;2022-12-18T09:18:19;-1.40;99.90
25918;DHT22;13899;51.174;4.456;2022-12-18T09:20:46;-1.30;99.90
25918;DHT22;13899;51.174;4.456;2022-12-18T09:23:12;-1.30;99.90
25918;DHT22;13899;51.174;4.456;2022-12-18T09:25:38;-1.50;99.90
25918;DHT22;13899;51.174;4.456;2022-12-18T09:28:12;-1.30;99.90
25918;DHT22;13899;51.174;4.456;2022-12-18T09:30:42;-1.20;99.90
25918;DHT22;13899;51.174;4.456;2022-12-18T09:33:09;-1.00;99.90
25918;DHT22;13899;51.174;4.456;2022-12-18T09:35:38;-0.90;99.90
25918;DHT22;13899;51.174;4.456;2022-12-18T09:38:04;-0.90;99.90
25918;DHT22;13899;51.174;4.456;2022-12-18T09:40:35;-1.00;99.90
25918;DHT22;13899;51.174;4.456;2022-12-18T09:43:04;-0.90;99.90
25918;DHT22;13899;51.174;4.456;2022-12-18T09:45:42;-1.00;99.90
25918;DHT22;13899;51.174;4.456;2022-12-18T09:48:19;-1.20;99.90
25918;DHT22;13899;51.174;4.456;2022-12-18T09:50:46;-0.90;99.90
25918;DHT22;13899;51.174;4.456;2022-12-18T09:53:17;-0.90;99.90
25918;DHT22;13899;51.174;4.456;2022-12-18T09:55:46;-0.90;99.90
25918;DHT22;13899;51.174;4.456;2022-12-18T09:58:20;-1.00;99.90
25918;DHT22;13899;51.174;4.456;2022-12-18T10:00:52;-1.20;99.90
25918;DHT22;13899;51.174;4.456;2022-12-18T10:03:18;-1.30;99.90
25918;DHT22;13899;51.174;4.456;2022-12-18T10:11:12;-0.90;99.90
25918;DHT22;13899;51.174;4.456;2022-12-18T10:13:49;-1.00;99.90
25918;DHT22;13899;51.174;4.456;2022-12-18T10:16:39;-0.90;99.90
25918;DHT22;13899;51.174;4.456;2022-12-18T10:21:55;-1.00;99.90
25918;DHT22;13899;51.174;4.456;2022-12-18T10:27:04;-0.70;99.90
25918;DHT22;13899;51.174;4.456;2022-12-18T10:29:35;-0.50;99.90
25918;DHT22;13899;51.174;4.456;2022-12-18T10:32:00;-0.20;99.90
25918;DHT22;13899;51.174;4.456;2022-12-18T10:34:26;-0.50;99.90
25918;DHT22;13899;51.174;4.456;2022-12-18T10:36:51;-0.30;99.90
25918;DHT22;13899;51.174;4.456;2022-12-18T10:39:20;-0.30;99.90
25918;DHT22;13899;51.174;4.456;2022-12-18T10:41:47;-0.30;99.90
25918;DHT22;13899;51.174;4.456;2022-12-18T10:44:22;-0.30;99.90
25918;DHT22;13899;51.174;4.456;2022-12-18T10:46:50;-0.10;99.90
25918;DHT22;13899;51.174;4.456;2022-12-18T10:49:24;-0.20;99.90
25918;DHT22;13899;51.174;4.456;2022-12-18T10:51:51;-0.20;99.90
25918;DHT22;13899;51.174;4.456;2022-12-18T10:54:30;-0.20;99.90
25918;DHT22;13899;51.174;4.456;2022-12-18T10:57:28;-0.10;99.90
25918;DHT22;13899;51.174;4.456;2022-12-18T10:59:57;-0.10;99.90
25918;DHT22;13899;51.174;4.456;2022-12-18T11:02:41;0.00;99.90
25918;DHT22;13899;51.174;4.456;2022-12-18T11:07:55;-0.20;99.90
25918;DHT22;13899;51.174;4.456;2022-12-18T11:10:28;-0.30;99.90
25918;DHT22;13899;51.174;4.456;2022-12-18T11:12:54;0.10;99.90
25918;DHT22;13899;51.174;4.456;2022-12-18T11:15:23;0.10;99.90
25918;DHT22;13899;51.174;4.456;2022-12-18T11:17:51;-0.10;99.90
25918;DHT22;13899;51.174;4.456;2022-12-18T11:20:31;-0.10;99.90
25918;DHT22;13899;51.174;4.456;2022-12-18T11:23:00;0.10;99.90
25918;DHT22;13899;51.174;4.456;2022-12-18T11:25:30;0.20;99.90
25918;DHT22;13899;51.174;4.456;2022-12-18T11:28:02;0.00;99.90
25918;DHT22;13899;51.174;4.456;2022-12-18T11:30:35;0.30;99.90
25918;DHT22;13899;51.174;4.456;2022-12-18T11:33:10;0.30;99.90
25918;DHT22;13899;51.174;4.456;2022-12-18T11:35:46;0.20;99.90
25918;DHT22;13899;51.174;4.456;2022-12-18T11:38:18;0.40;99.90
25918;DHT22;13899;51.174;4.456;2022-12-18T11:40:49;0.40;99.90
25918;DHT22;13899;51.174;4.456;2022-12-18T11:45:54;0.40;99.90
25918;DHT22;13899;51.174;4.456;2022-12-18T11:48:45;0.40;99.90
25918;DHT22;13899;51.174;4.456;2022-12-18T11:51:15;0.50;99.90
25918;DHT22;13899;51.174;4.456;2022-12-18T11:53:43;0.60;99.90
25918;DHT22;13899;51.174;4.456;2022-12-18T11:56:32;0.90;99.90
25918;DHT22;13899;51.174;4.456;2022-12-18T12:02:18;0.90;99.90
25918;DHT22;13899;51.174;4.456;2022-12-18T12:05:28;0.40;99.90
25918;DHT22;13899;51.174;4.456;2022-12-18T12:08:22;0.40;99.90
25918;DHT22;13899;51.174;4.456;2022-12-18T12:11:02;0.10;99.90
25918;DHT22;13899;51.174;4.456;2022-12-18T12:13:37;0.20;99.90
25918;DHT22;13899;51.174;4.456;2022-12-18T12:22:06;0.20;99.90
25918;DHT22;13899;51.174;4.456;2022-12-18T12:30:11;0.60;99.90
25918;DHT22;13899;51.174;4.456;2022-12-18T12:35:21;0.70;99.90
25918;DHT22;13899;51.174;4.456;2022-12-18T12:40:26;0.60;99.90
25918;DHT22;13899;51.174;4.456;2022-12-18T12:42:59;0.90;99.90
25918;DHT22;13899;51.174;4.456;2022-12-18T12:45:54;1.10;99.90
25918;DHT22;13899;51.174;4.456;2022-12-18T12:51:23;0.80;99.90
25918;DHT22;13899;51.174;4.456;2022-12-18T12:53:50;0.90;99.90
25918;DHT22;13899;51.174;4.456;2022-12-18T12:56:19;1.00;99.90
25918;DHT22;13899;51.174;4.456;2022-12-18T13:02:46;0.80;99.90
25918;DHT22;13899;51.174;4.456;2022-12-18T13:04:57;1.10;99.90
25918;DHT22;13899;51.174;4.456;2022-12-18T13:07:33;1.00;99.90
25918;DHT22;13899;51.174;4.456;2022-12-18T13:20:36;0.50;99.90
25918;DHT22;13899;51.174;4.456;2022-12-18T13:25:49;1.10;99.90
25918;DHT22;13899;51.174;4.456;2022-12-18T13:29:00;1.00;99.90
25918;DHT22;13899;51.174;4.456;2022-12-18T13:31:01;1.00;99.90
25918;DHT22;13899;51.174;4.456;2022-12-18T13:36:13;1.20;99.90
25918;DHT22;13899;51.174;4.456;2022-12-18T13:38:40;1.00;99.90
25918;DHT22;13899;51.174;4.456;2022-12-18T13:43:48;1.00;99.90
25918;DHT22;13899;51.174;4.456;2022-12-18T13:46:22;0.90;99.90
25918;DHT22;13899;51.174;4.456;2022-12-18T13:51:17;0.80;99.90
25918;DHT22;13899;51.174;4.456;2022-12-18T13:54:00;0.90;99.90
25918;DHT22;13899;51.174;4.456;2022-12-18T13:56:32;0.80;99.90
25918;DHT22;13899;51.174;4.456;2022-12-18T14:01:35;0.60;99.90
25918;DHT22;13899;51.174;4.456;2022-12-18T14:04:21;0.70;99.90
25918;DHT22;13899;51.174;4.456;2022-12-18T14:06:49;0.70;99.90
25918;DHT22;13899;51.174;4.456;2022-12-18T14:09:23;0.60;99.90
25918;DHT22;13899;51.174;4.456;2022-12-18T14:11:50;0.60;99.90
25918;DHT22;13899;51.174;4.456;2022-12-18T14:14:17;0.70;99.90
25918;DHT22;13899;51.174;4.456;2022-12-18T14:16:43;0.70;99.90
25918;DHT22;13899;51.174;4.456;2022-12-18T14:19:15;0.60;99.90
25918;DHT22;13899;51.174;4.456;2022-12-18T14:21:46;0.50;99.90
25918;DHT22;13899;51.174;4.456;2022-12-18T14:24:18;0.60;99.90
25918;DHT22;13899;51.174;4.456;2022-12-18T14:26:47;0.60;99.90
25918;DHT22;13899;51.174;4.456;2022-12-18T14:29:40;0.60;99.90
25918;DHT22;13899;51.174;4.456;2022-12-18T14:32:13;0.70;99.90
25918;DHT22;13899;51.174;4.456;2022-12-18T14:34:51;0.70;99.90
25918;DHT22;13899;51.174;4.456;2022-12-18T14:37:26;0.80;99.90
25918;DHT22;13899;51.174;4.456;2022-12-18T14:39:57;0.90;99.90
25918;DHT22;13899;51.174;4.456;2022-12-18T14:42:24;0.80;99.90
25918;DHT22;13899;51.174;4.456;2022-12-18T14:47:58;0.80;99.90
25918;DHT22;13899;51.174;4.456;2022-12-18T14:50:24;0.60;99.90
25918;DHT22;13899;51.174;4.456;2022-12-18T14:52:50;0.80;99.90
25918;DHT22;13899;51.174;4.456;2022-12-18T14:55:19;0.90;99.90
25918;DHT22;13899;51.174;4.456;2022-12-18T14:57:50;0.60;99.90
25918;DHT22;13899;51.174;4.456;2022-12-18T15:00:21;0.60;99.90
25918;DHT22;13899;51.174;4.456;2022-12-18T15:02:53;0.80;99.90
25918;DHT22;13899;51.174;4.456;2022-12-18T15:05:21;0.50;99.90
25918;DHT22;13899;51.174;4.456;2022-12-18T15:07:55;0.50;99.90
25918;DHT22;13899;51.174;4.456;2022-12-18T15:23:22;0.50;99.90
25918;DHT22;13899;51.174;4.456;2022-12-18T15:25:59;0.50;99.90
25918;DHT22;13899;51.174;4.456;2022-12-18T15:28:32;0.40;99.90
25918;DHT22;13899;51.174;4.456;2022-12-18T15:31:01;0.40;99.90
25918;DHT22;13899;51.174;4.456;2022-12-18T15:33:33;0.50;99.90
25918;DHT22;13899;51.174;4.456;2022-12-18T15:36:00;0.40;99.90
25918;DHT22;13899;51.174;4.456;2022-12-18T15:38:27;0.40;99.90
25918;DHT22;13899;51.174;4.456;2022-12-18T15:40:53;0.50;99.90
25918;DHT22;13899;51.174;4.456;2022-12-18T15:43:21;0.40;99.90
25918;DHT22;13899;51.174;4.456;2022-12-18T15:46:05;0.40;99.90
25918;DHT22;13899;51.174;4.456;2022-12-18T15:48:33;0.40;99.90
25918;DHT22;13899;51.174;4.456;2022-12-18T15:50:59;0.50;99.90
25918;DHT22;13899;51.174;4.456;2022-12-18T15:53:29;0.60;99.90
25918;DHT22;13899;51.174;4.456;2022-12-18T15:55:55;0.70;99.90
25918;DHT22;13899;51.174;4.456;2022-12-18T15:58:39;0.60;99.90
25918;DHT22;13899;51.174;4.456;2022-12-18T16:01:05;0.60;99.90
25918;DHT22;13899;51.174;4.456;2022-12-18T16:03:32;0.60;99.90
25918;DHT22;13899;51.174;4.456;2022-12-18T16:05:58;0.70;99.90
25918;DHT22;13899;51.174;4.456;2022-12-18T16:08:25;0.70;99.90
25918;DHT22;13899;51.174;4.456;2022-12-18T16:10:51;0.80;99.90
25918;DHT22;13899;51.174;4.456;2022-12-18T16:13:19;0.90;99.90
25918;DHT22;13899;51.174;4.456;2022-12-18T16:15:45;0.80;99.90
25918;DHT22;13899;51.174;4.456;2022-12-18T16:18:10;0.80;99.90
25918;DHT22;13899;51.174;4.456;2022-12-18T16:20:36;0.80;99.90
25918;DHT22;13899;51.174;4.456;2022-12-18T16:23:03;0.70;99.90
25918;DHT22;13899;51.174;4.456;2022-12-18T16:25:29;0.70;99.90
25918;DHT22;13899;51.174;4.456;2022-12-18T16:27:55;0.70;99.90
25918;DHT22;13899;51.174;4.456;2022-12-18T16:30:23;0.70;99.90
25918;DHT22;13899;51.174;4.456;2022-12-18T16:32:49;0.70;99.90
25918;DHT22;13899;51.174;4.456;2022-12-18T16:35:16;0.70;99.90
25918;DHT22;13899;51.174;4.456;2022-12-18T16:37:42;0.80;99.90
25918;DHT22;13899;51.174;4.456;2022-12-18T16:40:11;0.80;99.90
25918;DHT22;13899;51.174;4.456;2022-12-18T16:42:38;0.80;99.90
25918;DHT22;13899;51.174;4.456;2022-12-18T16:45:05;0.80;99.90
25918;DHT22;13899;51.174;4.456;2022-12-18T16:47:32;0.80;99.90
25918;DHT22;13899;51.174;4.456;2022-12-18T16:49:58;0.80;99.90
25918;DHT22;13899;51.174;4.456;2022-12-18T16:52:23;0.90;99.90
25918;DHT22;13899;51.174;4.456;2022-12-18T16:54:49;0.90;99.90
25918;DHT22;13899;51.174;4.456;2022-12-18T16:57:17;0.80;99.90
25918;DHT22;13899;51.174;4.456;2022-12-18T16:59:43;0.90;99.90
25918;DHT22;13899;51.174;4.456;2022-12-18T17:02:13;0.90;99.90
25918;DHT22;13899;51.174;4.456;2022-12-18T17:04:40;0.90;99.90
25918;DHT22;13899;51.174;4.456;2022-12-18T17:07:06;0.90;99.90
25918;DHT22;13899;51.174;4.456;2022-12-18T17:09:32;1.00;99.90
25918;DHT22;13899;51.174;4.456;2022-12-18T17:11:58;1.00;99.90
25918;DHT22;13899;51.174;4.456;2022-12-18T17:14:24;1.00;99.90
25918;DHT22;13899;51.174;4.456;2022-12-18T17:16:51;1.00;99.90
25918;DHT22;13899;51.174;4.456;2022-12-18T17:19:17;1.10;99.90
25918;DHT22;13899;51.174;4.456;2022-12-18T17:21:44;1.10;99.90
25918;DHT22;13899;51.174;4.456;2022-12-18T17:24:10;1.10;99.90
25918;DHT22;13899;51.174;4.456;2022-12-18T17:26:36;1.10;99.90
25918;DHT22;13899;51.174;4.456;2022-12-18T17:29:02;1.10;99.90
25918;DHT22;13899;51.174;4.456;2022-12-18T17:31:28;1.10;99.90
25918;DHT22;13899;51.174;4.456;2022-12-18T17:33:54;1.10;99.90
25918;DHT22;13899;51.174;4.456;2022-12-18T17:36:21;1.10;99.90
25918;DHT22;13899;51.174;4.456;2022-12-18T17:38:50;1.10;99.90
25918;DHT22;13899;51.174;4.456;2022-12-18T17:41:17;1.10;99.90
25918;DHT22;13899;51.174;4.456;2022-12-18T17:43:42;1.10;99.90
25918;DHT22;13899;51.174;4.456;2022-12-18T17:46:11;1.10;99.90
25918;DHT22;13899;51.174;4.456;2022-12-18T17:48:36;1.20;99.90